Aérodrome :
LOGIN :

S'inscrire | Disclaimer

   EN    FR    IT 

 










Légende :    VFR   VFR Marginal   IFR   IFR Intensif   IFR Très Intensif
Visi : 
Plafond : 
>= 8 km
>= 3000ft
5 à 8 km
1000 à 3000 ft
1500m à 5 km
500 à 1000 ft
800 à 1500m
200 à 500 ft
< 800m
< 200 ft
Symboles :   Orages  Brouillard  Fortes neiges  Fortes précipitations  Vent > 20 kt
SIGMETs :   Divers  Orages  Givrage  Turbulence  Onde Orograph.  Cendres Volcan.







- Altitude de l'aérodrome : 231 ft
- Code IATA : WTN


EGXW - RAF Waddington

DERNIER METAR :
  • 200650Z 22015KT 9999 FEW007 BKN016 BKN050 09/08 Q1011 WHT

METARs EXPIRÉS :
  • 200550Z 21013KT 9999 -RA SCT008 BKN035 BKN060 08/07 Q1012 GRN
  • 200450Z 21013KT 9999 FEW005 SCT028 BKN044 08/07 Q1013 BLU

TAF TAF EGXW
Valide du 20 à 06h jusqu'au 21 à 00h UTC


200415Z 2006/2024 21014KT 9999 -RA FEW010 BKN030
BECMG 2006/2009 24015G25KT
TEMPO 2006/2010 5000 RA BKN010
PROB30
TEMPO 2006/2010 3000 RADZ SCT003
TEMPO 2010/2012 BKN010
PROB30
TEMPO 2012/2017 6000 SHRA BKN015TCU
BECMG 2015/2017 26012KT
PROB30 2017/2024 BKN015
Pas de NOTAMs connus pour ce terrain.



MET'MAP, la Météo Aéronautique d'un coup d'oeil ! - Copyright ORBIFLY Décembre 2007 - Disclaimer

ORBIFLY MET'MAP TEAM :

Programmation & Développement : Alexandra Zaïnal
Conception & Développement : Baudouin d'Aumeries
Co-Programmation & Développement : Marc-Olivier Méhu
Soutien technique & logistique : Manuel Goepfert

Contact : metmap@orbifly.com




SOURCES & CREDITS :

   NOAA